Weather History for Grand Canyon, AZ

Change the Weather History Date:

Saturday, December 15, 2012

  Actual Average Record
Temperature  
Mean Temperature 24 °F -  
Max Temperature 28 °F 41 °F 57 °F (1977)
Min Temperature 19 °F 13 °F -4 °F (2001)
Degree Days  
Heating Degree Days 42    
Moisture  
Dew Point 24 °F    
Average Humidity 90    
Maximum Humidity 93    
Minimum Humidity 80    
Precipitation  
Precipitation 0.00 in - - ()
Sea Level Pressure  
Sea Level Pressure 29.87 in    
Wind  
Wind Speed 8 mph (SW)    
Max Wind Speed 15 mph    
Max Gust Speed 25 mph    
Visibility 3 miles    
Events Fog , Snow    
Averages and records for this station are not official NWS values.
T = Trace of Precipitation, MM = Missing Value Source: NWS Daily Summary

Daily Weather History Graph

Daily Weather History Graph

Search for Another Location

Airport:

Trip Planner

Search our weather history database for the weather conditions in past years. The results will help you decide how hot, cold, wet, or windy it might be!

Date:

Astronomy

Dec. 15, 2012 Rise Set
Actual Time 7:32 AM MST 5:16 PM MST
Civil Twilight 7:03 AM MST 5:44 PM MST
Nautical Twilight 6:31 AM MST 6:16 PM MST
Astronomical Twilight 6:00 AM MST 6:47 PM MST
Moon 9:31 AM MST (12/15) 8:20 PM MST (12/15)
Length of Visible Light 10h 41m
Length of Day
9h 43m
Waxing Crescent, 9% of the Moon is Illuminated
Dec 15
Waxing Crescent
Dec 19
First Quarter
Dec 28
Full
Jan 4
Last Quarter
Jan 11
New

Hourly Weather History & Observations

Time (MST) Temp. Windchill Dew Point Humidity Pressure Visibility Wind Dir Wind Speed Gust Speed Precip Events Conditions
12:08 AM 26.6 °F 20.0 °F 24.8 °F 93% 29.90 in 2.5 mi South 5.8 mph - 0.00 in Snow Light Snow
12:16 AM 26.6 °F 20.0 °F 24.8 °F 93% 29.90 in 1.5 mi South 5.8 mph - 0.00 in Snow Light Snow
12:27 AM 26.6 °F 20.0 °F 24.8 °F 93% 29.90 in 1.0 mi South 5.8 mph - 0.00 in Snow Light Snow
12:42 AM 26.6 °F 22.6 °F 24.8 °F 93% 29.90 in 0.8 mi South 3.5 mph - 0.00 in Snow Light Snow
12:54 AM 27.0 °F 23.0 °F 25.0 °F 92% 29.90 in 1.0 mi South 3.5 mph - 0.00 in Snow Light Snow
1:18 AM 26.6 °F 18.2 °F 24.8 °F 93% 29.89 in 1.5 mi South 8.1 mph - 0.00 in Snow Light Snow
1:28 AM 26.6 °F 19.1 °F 24.8 °F 93% 29.88 in 2.0 mi South 6.9 mph - 0.00 in Snow Light Snow
1:36 AM 26.6 °F 19.1 °F 24.8 °F 93% 29.88 in 1.2 mi South 6.9 mph - 0.00 in Snow Light Snow
1:54 AM 27.0 °F 19.5 °F 25.0 °F 92% 29.88 in 1.0 mi South 6.9 mph - 0.00 in Snow Light Snow
2:22 AM 26.6 °F 21.2 °F 24.8 °F 93% 29.87 in 1.5 mi South 4.6 mph - 0.00 in Snow Light Snow
2:33 AM 26.6 °F 20.0 °F 24.8 °F 93% 29.86 in 1.0 mi South 5.8 mph - 0.00 in Snow Light Snow
2:41 AM 26.6 °F 22.6 °F 24.8 °F 93% 29.86 in 0.8 mi South 3.5 mph - 0.00 in Snow Light Snow
2:49 AM 26.6 °F 21.2 °F 24.8 °F 93% 29.86 in 1.0 mi South 4.6 mph - 0.00 in Snow Light Snow
2:54 AM 27.0 °F 21.6 °F 25.0 °F 92% 29.87 in 0.8 mi South 4.6 mph - 0.00 in Snow Light Snow
3:10 AM 26.6 °F 22.6 °F 24.8 °F 93% 29.86 in 1.2 mi South 3.5 mph - 0.00 in Snow Light Snow
3:24 AM 26.6 °F 20.0 °F 24.8 °F 93% 29.85 in 0.5 mi South 5.8 mph - 0.00 in Fog , Snow Snow
3:31 AM 26.6 °F 21.2 °F 24.8 °F 93% 29.85 in 0.5 mi South 4.6 mph - 0.00 in Fog , Snow Snow
3:54 AM 28.0 °F 21.7 °F 25.0 °F 88% 29.86 in 0.5 mi South 5.8 mph - 0.00 in Fog , Snow Snow
4:37 AM 28.4 °F 21.2 °F 24.8 °F 86% 29.84 in 1.5 mi South 6.9 mph - 0.00 in Snow Light Snow
4:54 AM 28.0 °F 20.0 °F 25.0 °F 88% 29.86 in 1.2 mi South 8.1 mph - 0.00 in Snow Light Snow
5:04 AM 28.4 °F 19.1 °F 24.8 °F 86% 29.84 in 1.0 mi South 10.4 mph - 0.00 in Snow Light Snow
5:14 AM 28.4 °F 19.1 °F 24.8 °F 86% 29.84 in 0.8 mi South 10.4 mph - 0.00 in Snow Light Snow
5:28 AM 28.4 °F 18.0 °F 26.6 °F 93% 29.84 in 1.2 mi SSW 12.7 mph - 0.00 in Snow Light Snow
5:33 AM 28.4 °F 17.5 °F 26.6 °F 93% 29.84 in 1.8 mi SSW 13.8 mph - 0.00 in Snow Light Snow
5:38 AM 28.4 °F 18.0 °F 26.6 °F 93% 29.84 in 3.0 mi SSW 12.7 mph - 0.00 in Snow Light Snow
5:47 AM 28.4 °F 18.5 °F 26.6 °F 93% 29.84 in 1.8 mi SSW 11.5 mph - 0.00 in Snow Light Snow
5:54 AM 28.0 °F 18.1 °F 26.1 °F 92% 29.86 in 1.0 mi SSW 11.5 mph - 0.00 in Snow Light Snow
6:17 AM 28.4 °F 18.0 °F 26.6 °F 93% 29.85 in 1.5 mi SSW 12.7 mph - 0.00 in Snow Light Snow
6:31 AM 28.4 °F 19.7 °F 26.6 °F 93% 29.85 in 1.0 mi SSW 9.2 mph - 0.00 in Snow Light Snow
6:34 AM 28.4 °F 19.1 °F 26.6 °F 93% 29.85 in 0.8 mi SSW 10.4 mph - 0.00 in Snow Light Snow
6:46 AM 28.4 °F 19.7 °F 24.8 °F 86% 29.85 in 1.2 mi SSW 9.2 mph - 0.00 in Snow Light Snow
6:54 AM 28.0 °F 18.6 °F 25.0 °F 88% 29.86 in 1.0 mi SSW 10.4 mph - 0.00 in Snow Light Snow
7:17 AM 28.4 °F 19.7 °F 24.8 °F 86% 29.85 in 0.8 mi SSW 9.2 mph - 0.00 in Snow Light Snow
7:24 AM 28.4 °F 19.7 °F 24.8 °F 86% 29.85 in 1.2 mi SSW 9.2 mph - 0.00 in Snow Light Snow
7:29 AM 28.4 °F 19.7 °F 24.8 °F 86% 29.85 in 2.0 mi SSW 9.2 mph - 0.00 in Snow Light Snow
7:54 AM 28.0 °F 18.6 °F 25.0 °F 88% 29.87 in 2.0 mi SSW 10.4 mph - 0.00 in Snow Light Snow
8:01 AM 28.4 °F 18.0 °F 24.8 °F 86% 29.85 in 0.5 mi SSW 12.7 mph - 0.00 in Fog , Snow Snow
8:41 AM 28.4 °F 18.0 °F 26.6 °F 93% 29.86 in 0.2 mi SSW 12.7 mph - 0.00 in Fog , Snow Snow
8:54 AM 28.0 °F 18.6 °F 26.1 °F 92% 29.87 in 0.5 mi SSW 10.4 mph - 0.00 in Fog , Snow Light Snow
9:13 AM 28.4 °F 18.0 °F 26.6 °F 93% 29.86 in 1.0 mi SSW 12.7 mph - 0.00 in Snow Light Snow
9:23 AM 28.4 °F 18.5 °F 26.6 °F 93% 29.86 in 0.8 mi SSW 11.5 mph - 0.00 in Snow Light Snow
9:46 AM 28.4 °F 18.5 °F 26.6 °F 93% 29.87 in 0.5 mi SW 11.5 mph 21.9 mph 0.00 in Fog , Snow Light Snow
9:54 AM 28.9 °F 17.7 °F 26.1 °F 89% 29.88 in 0.5 mi SW 15.0 mph - 0.00 in Fog , Snow Light Snow
10:14 AM 28.4 °F 17.5 °F 26.6 °F 93% 29.88 in 0.2 mi SW 13.8 mph - 0.00 in Fog , Snow Snow
10:54 AM 28.9 °F 19.8 °F 26.1 °F 89% 29.88 in 0.2 mi SW 10.4 mph - 0.00 in Fog , Snow Snow
11:54 AM 27.0 °F 17.3 °F 24.1 °F 89% 29.89 in 0.2 mi WSW 10.4 mph 21.9 mph 0.00 in Fog , Snow Snow
12:13 PM 26.6 °F 17.5 °F 24.8 °F 93% 29.87 in 0.5 mi WSW 9.2 mph 21.9 mph 0.00 in Fog , Snow Snow
12:22 PM 26.6 °F 19.1 °F 24.8 °F 93% 29.86 in 0.2 mi WSW 6.9 mph 17.3 mph 0.00 in Fog , Snow Snow
12:49 PM 26.6 °F 16.2 °F 24.8 °F 93% 29.85 in 0.5 mi West 11.5 mph 16.1 mph 0.00 in Fog , Snow Snow
12:54 PM 27.0 °F 18.0 °F 24.1 °F 89% 29.88 in 0.5 mi WSW 9.2 mph - 0.00 in Fog , Snow Snow
1:08 PM 26.6 °F 16.8 °F 24.8 °F 93% 29.85 in 1.0 mi WSW 10.4 mph - 0.00 in Snow Light Snow
1:21 PM 26.6 °F 16.8 °F 23.0 °F 86% 29.85 in 0.5 mi West 10.4 mph - 0.00 in Fog , Snow Light Snow
1:35 PM 26.6 °F 20.0 °F 24.8 °F 93% 29.85 in 0.2 mi WSW 5.8 mph - 0.00 in Fog , Snow Snow
1:41 PM 26.6 °F 19.1 °F 24.8 °F 93% 29.85 in 0.5 mi SW 6.9 mph - 0.00 in Fog , Snow Snow
1:54 PM 27.0 °F 20.5 °F 25.0 °F 92% 29.87 in 0.8 mi WSW 5.8 mph - 0.00 in Snow Light Snow
1:57 PM 26.6 °F 18.2 °F 24.8 °F 93% 29.85 in 1.8 mi WSW 8.1 mph - 0.00 in Snow Light Snow
2:00 PM 28.4 °F 20.4 °F 24.8 °F 86% 29.85 in 3.0 mi WSW 8.1 mph - 0.00 in Snow Light Snow
2:14 PM 26.6 °F 18.2 °F 24.8 °F 93% 29.84 in 1.8 mi WSW 8.1 mph - 0.00 in Snow Light Snow
2:24 PM 26.6 °F 17.5 °F 24.8 °F 93% 29.84 in 3.0 mi WSW 9.2 mph 16.1 mph 0.00 in Snow Light Snow
2:36 PM 26.6 °F 16.8 °F 24.8 °F 93% 29.84 in 1.2 mi SW 10.4 mph - 0.00 in Snow Light Snow
2:42 PM 26.6 °F 16.2 °F 24.8 °F 93% 29.84 in 0.2 mi SW 11.5 mph - 0.00 in Fog , Snow Light Snow
2:54 PM 27.0 °F 16.1 °F 24.1 °F 89% 29.86 in 0.2 mi WSW 12.7 mph - 0.00 in Fog , Snow Snow
3:06 PM 28.4 °F 17.0 °F 23.0 °F 80% 29.84 in 1.5 mi WSW 15.0 mph 24.2 mph 0.00 in Snow Light Snow
3:08 PM 26.6 °F 15.7 °F 23.0 °F 86% 29.85 in 4.0 mi WSW 12.7 mph 24.2 mph 0.00 in Snow Light Snow
3:15 PM 26.6 °F 15.7 °F 21.2 °F 80% 29.84 in 9.0 mi WSW 12.7 mph 25.3 mph 0.00 in   Mostly Cloudy
3:43 PM 26.6 °F 16.2 °F 21.2 °F 80% 29.86 in 10.0 mi WSW 11.5 mph - 0.00 in   Overcast
3:54 PM 27.0 °F 16.7 °F 21.9 °F 81% 29.88 in 10.0 mi WSW 11.5 mph - 0.00 in   Overcast
4:54 PM 26.1 °F 15.6 °F 21.0 °F 81% 29.90 in 10.0 mi WSW 11.5 mph - N/A   Overcast
5:07 PM 24.8 °F 13.4 °F 21.2 °F 86% 29.87 in 10.0 mi WSW 12.7 mph - N/A   Overcast
5:54 PM 25.0 °F 16.3 °F 21.0 °F 85% 29.91 in 10.0 mi WSW 8.1 mph - N/A   Overcast
6:54 PM 25.0 °F 16.3 °F 21.0 °F 85% 29.91 in 10.0 mi WSW 8.1 mph - N/A   Overcast
7:54 PM 21.9 °F 14.5 °F 19.9 °F 92% 29.95 in 10.0 mi WSW 5.8 mph - N/A   Scattered Clouds
8:10 PM 19.4 °F 12.8 °F 17.6 °F 93% 29.91 in 10.0 mi SSW 4.6 mph - N/A   Mostly Cloudy
8:54 PM 21.9 °F 15.7 °F 19.9 °F 92% 29.96 in 10.0 mi WSW 4.6 mph - N/A   Overcast
9:54 PM 21.0 °F 16.2 °F 19.0 °F 92% 29.98 in 10.0 mi SW 3.5 mph - N/A   Overcast
10:54 PM 19.9 °F - 18.0 °F 92% 29.99 in 10.0 mi Calm Calm - N/A   Overcast
11:54 PM 21.9 °F 15.7 °F 19.0 °F 89% 29.99 in 10.0 mi WSW 4.6 mph - N/A   Overcast